createdAt,value
2022-10-29T00:00:52.695Z,9.87
2022-10-29T00:03:21.341Z,10.57
2022-10-29T00:06:00.500Z,10.97
2022-10-29T00:08:29.952Z,10.67
2022-10-29T00:11:05.422Z,11.60
2022-10-29T00:13:35.218Z,11.50
2022-10-29T00:16:06.662Z,11.23
2022-10-29T00:18:34.592Z,10.93
2022-10-29T00:21:03.700Z,10.53
2022-10-29T00:23:31.759Z,11.33
2022-10-29T00:26:00.310Z,10.80
2022-10-29T00:28:29.036Z,11.10
2022-10-29T00:30:58.511Z,11.13
2022-10-29T00:33:26.412Z,10.20
2022-10-29T00:35:58.201Z,10.40
2022-10-29T00:38:26.309Z,10.60
2022-10-29T00:40:54.586Z,10.07
2022-10-29T00:43:24.361Z,11.03
2022-10-29T00:45:55.513Z,10.83
2022-10-29T00:48:26.692Z,10.00
2022-10-29T00:50:56.252Z,10.97
2022-10-29T00:53:30.178Z,11.83
2022-10-29T00:55:59.202Z,11.27
2022-10-29T00:58:27.831Z,10.97
2022-10-29T01:00:55.816Z,10.20
2022-10-29T01:03:25.172Z,10.23
2022-10-29T01:05:54.228Z,10.73
2022-10-29T01:08:22.479Z,10.13
2022-10-29T01:11:02.762Z,10.07
2022-10-29T01:13:42.576Z,9.53
2022-10-29T01:16:20.427Z,9.80
2022-10-29T01:19:00.136Z,9.33
2022-10-29T01:21:53.882Z,9.77
2022-10-29T01:24:55.248Z,9.20
2022-10-29T01:28:00.321Z,10.10
2022-10-29T01:31:09.703Z,8.67
2022-10-29T01:33:46.453Z,9.33
2022-10-29T01:36:20.064Z,9.10
2022-10-29T01:38:55.622Z,9.53
2022-10-29T01:41:27.911Z,9.10
2022-10-29T01:44:01.713Z,10.07
2022-10-29T01:46:37.324Z,8.77
2022-10-29T01:49:12.103Z,10.77
2022-10-29T01:51:41.508Z,10.17
2022-10-29T01:54:12.355Z,10.70
2022-10-29T01:56:40.483Z,9.63
2022-10-29T01:59:22.880Z,11.20
2022-10-29T02:02:10.328Z,11.00
2022-10-29T02:04:54.668Z,9.97
2022-10-29T02:07:36.446Z,9.50
2022-10-29T02:10:12.828Z,9.43
2022-10-29T02:12:47.293Z,9.77
2022-10-29T02:15:20.224Z,9.07
2022-10-29T02:17:48.247Z,9.53
2022-10-29T02:20:18.049Z,8.47
2022-10-29T02:22:46.399Z,8.70
2022-10-29T02:25:15.136Z,8.50
2022-10-29T02:27:43.151Z,8.37
2022-10-29T02:30:11.790Z,9.10
2022-10-29T02:32:39.704Z,8.50
2022-10-29T02:35:08.559Z,8.73
2022-10-29T02:37:37.867Z,7.87
2022-10-29T02:40:06.555Z,8.17
2022-10-29T02:42:34.478Z,7.70
2022-10-29T02:45:02.381Z,7.80
2022-10-29T02:47:30.310Z,6.83
2022-10-29T02:49:58.379Z,7.30
2022-10-29T02:52:26.432Z,7.93
2022-10-29T02:54:55.759Z,7.33
2022-10-29T02:57:23.792Z,7.17
2022-10-29T02:59:51.741Z,6.97
2022-10-29T03:02:19.816Z,7.60
2022-10-29T03:04:47.859Z,6.87
2022-10-29T03:07:15.804Z,6.50
2022-10-29T03:09:43.754Z,7.27
2022-10-29T03:12:13.021Z,7.10
2022-10-29T03:14:41.116Z,6.57
2022-10-29T03:17:09.047Z,6.87
2022-10-29T03:19:36.975Z,6.53
2022-10-29T03:22:04.931Z,6.83
2022-10-29T03:24:32.893Z,7.63
2022-10-29T03:27:00.847Z,7.73
2022-10-29T03:29:30.166Z,7.60
2022-10-29T03:31:58.088Z,7.37
2022-10-29T03:34:26.113Z,6.80
2022-10-29T03:36:54.087Z,7.07
2022-10-29T03:39:22.000Z,7.00
2022-10-29T03:41:49.999Z,7.47
2022-10-29T03:44:17.984Z,6.60
2022-10-29T03:46:47.281Z,7.33
2022-10-29T03:49:15.315Z,7.30
2022-10-29T03:51:43.271Z,7.73
2022-10-29T03:54:11.264Z,7.10
2022-10-29T03:56:39.213Z,7.03
2022-10-29T03:59:07.317Z,6.83
2022-10-29T04:01:35.421Z,6.63
2022-10-29T04:04:04.824Z,6.50
2022-10-29T04:06:32.726Z,6.97
2022-10-29T04:09:00.640Z,6.37
2022-10-29T04:11:28.576Z,6.23
2022-10-29T04:13:56.502Z,6.10
2022-10-29T04:16:24.456Z,5.83
2022-10-29T04:18:53.082Z,6.77
2022-10-29T04:29:46.561Z,6.47
2022-10-29T04:32:14.448Z,6.37
2022-10-29T04:34:42.403Z,5.80
2022-10-29T04:37:11.655Z,6.20
2022-10-29T04:39:39.594Z,5.50
2022-10-29T04:42:07.514Z,5.57
2022-10-29T04:44:35.940Z,6.03
2022-10-29T04:47:03.895Z,5.77
2022-10-29T04:49:31.864Z,5.07
2022-10-29T04:51:59.904Z,5.53
2022-10-29T04:54:29.211Z,4.70
2022-10-29T04:56:57.209Z,4.97
2022-10-29T04:59:25.141Z,4.87
2022-10-29T05:01:53.066Z,4.90
2022-10-29T05:04:21.019Z,5.80
2022-10-29T05:06:48.945Z,5.40
2022-10-29T05:09:16.855Z,5.67
2022-10-29T05:11:46.201Z,5.30
2022-10-29T05:14:14.115Z,5.90
2022-10-29T05:16:42.107Z,5.30
2022-10-29T05:19:10.054Z,5.37
2022-10-29T05:21:38.003Z,5.83
2022-10-29T05:24:06.147Z,5.37
2022-10-29T05:26:34.080Z,5.10
2022-10-29T05:29:03.592Z,5.80
2022-10-29T05:31:31.528Z,5.70
2022-10-29T05:33:59.563Z,5.80
2022-10-29T05:36:27.501Z,5.77
2022-10-29T05:38:55.451Z,5.50
2022-10-29T05:41:23.372Z,5.53
2022-10-29T05:43:51.375Z,4.90
2022-10-29T05:46:20.716Z,5.27
2022-10-29T05:48:48.630Z,5.17
2022-10-29T05:53:55.635Z,5.30
2022-10-29T05:56:23.597Z,4.97
2022-10-29T05:58:52.054Z,4.90
2022-10-29T06:01:21.369Z,5.23
2022-10-29T06:03:49.405Z,4.90
2022-10-29T06:06:17.457Z,4.70
2022-10-29T06:08:45.448Z,5.50
2022-10-29T06:11:13.374Z,4.97
2022-10-29T06:13:41.306Z,4.97
2022-10-29T06:16:09.702Z,5.30
2022-10-29T06:18:38.993Z,5.13
2022-10-29T06:21:07.114Z,5.30
2022-10-29T06:23:35.055Z,5.93
2022-10-29T06:26:03.447Z,5.37
2022-10-29T06:28:34.835Z,5.13
2022-10-29T06:31:03.187Z,5.03
2022-10-29T06:33:31.328Z,4.70
2022-10-29T06:36:01.402Z,5.27
2022-10-29T06:38:29.357Z,5.63
2022-10-29T06:40:57.322Z,5.50
2022-10-29T06:43:25.292Z,4.67
2022-10-29T06:45:53.172Z,4.53
2022-10-29T06:48:22.634Z,4.57
2022-10-29T06:50:51.060Z,4.87
2022-10-29T06:53:20.564Z,4.73
2022-10-29T06:55:49.130Z,4.43
2022-10-29T06:58:19.007Z,4.23
2022-10-29T07:00:47.698Z,4.70
2022-10-29T07:03:16.856Z,4.63
2022-10-29T07:05:45.039Z,4.50
2022-10-29T07:08:13.484Z,4.37
2022-10-29T07:10:42.781Z,4.00
2022-10-29T07:13:10.915Z,3.50
2022-10-29T07:15:38.939Z,4.10
2022-10-29T07:18:08.378Z,3.80
2022-10-29T07:20:38.807Z,3.77
2022-10-29T07:23:06.928Z,3.90
2022-10-29T07:25:35.918Z,4.23
2022-10-29T07:28:06.808Z,4.20
2022-10-29T07:30:35.214Z,4.00
2022-10-29T07:33:03.394Z,4.03
2022-10-29T07:35:31.413Z,4.00
2022-10-29T07:38:07.165Z,4.50
2022-10-29T07:40:39.046Z,4.30
2022-10-29T07:43:08.389Z,6.90
2022-10-29T07:45:36.333Z,5.87
2022-10-29T07:48:07.493Z,5.70
2022-10-29T07:50:35.757Z,5.30
2022-10-29T07:53:04.621Z,4.90
2022-10-29T07:55:33.021Z,4.30
2022-10-29T07:58:02.432Z,5.27
2022-10-29T08:00:32.612Z,4.67
2022-10-29T08:03:00.544Z,4.70
2022-10-29T08:05:29.641Z,4.83
2022-10-29T08:07:58.522Z,4.50
2022-10-29T08:10:27.473Z,4.50
2022-10-29T08:13:00.318Z,4.17
2022-10-29T08:15:29.589Z,4.73
2022-10-29T08:17:59.427Z,4.80
2022-10-29T08:20:29.173Z,4.90
2022-10-29T08:22:59.800Z,5.13
2022-10-29T08:25:28.088Z,4.37
2022-10-29T08:28:03.700Z,4.10
2022-10-29T08:30:32.809Z,4.50
2022-10-29T08:33:02.331Z,4.73
2022-10-29T08:35:30.697Z,4.33
2022-10-29T08:37:58.899Z,4.70
2022-10-29T08:40:31.159Z,4.63
2022-10-29T08:43:29.247Z,4.57
2022-10-29T08:45:57.886Z,5.10
2022-10-29T08:48:37.540Z,4.47
2022-10-29T08:51:14.563Z,4.37
2022-10-29T08:53:54.262Z,4.87
2022-10-29T08:56:36.584Z,5.33
2022-10-29T08:59:09.271Z,5.00
2022-10-29T09:01:37.973Z,5.37
2022-10-29T09:04:21.521Z,5.07
2022-10-29T09:07:11.139Z,5.10
2022-10-29T09:09:41.670Z,5.37
2022-10-29T09:12:26.510Z,5.53
2022-10-29T09:15:18.043Z,4.47
2022-10-29T09:17:53.747Z,5.07
2022-10-29T09:20:34.143Z,5.30
2022-10-29T09:23:09.791Z,5.20
2022-10-29T09:25:46.813Z,4.97
2022-10-29T09:28:28.997Z,4.13
2022-10-29T09:31:07.042Z,4.97
2022-10-29T09:33:35.064Z,5.03
2022-10-29T09:36:15.149Z,4.70
2022-10-29T09:38:52.623Z,5.07
2022-10-29T09:41:23.225Z,4.73
2022-10-29T09:43:57.063Z,4.90
2022-10-29T09:46:37.044Z,4.80
2022-10-29T09:49:16.611Z,4.63
2022-10-29T09:54:32.914Z,3.90
2022-10-29T09:57:03.414Z,3.90
2022-10-29T10:31:17.926Z,5.13
2022-10-29T10:33:51.147Z,5.97
2022-10-29T10:36:21.811Z,5.47
2022-10-29T10:38:52.883Z,6.23
2022-10-29T10:41:25.459Z,6.17
2022-10-29T10:43:55.817Z,6.53
2022-10-29T10:46:27.787Z,5.60
2022-10-29T10:49:01.908Z,5.80
2022-10-29T10:51:32.241Z,5.50
2022-10-29T10:54:02.484Z,5.77
2022-10-29T10:56:31.082Z,5.43
2022-10-29T10:59:05.688Z,5.40
2022-10-29T11:01:39.512Z,5.40
2022-10-29T11:04:16.057Z,5.50
2022-10-29T11:06:49.391Z,5.23
2022-10-29T11:09:25.556Z,5.00
2022-10-29T11:12:00.283Z,6.23
2022-10-29T11:14:32.634Z,5.03
2022-10-29T11:17:03.870Z,5.60
2022-10-29T11:19:37.137Z,5.33
2022-10-29T11:22:15.143Z,5.33
2022-10-29T11:24:49.715Z,5.90
2022-10-29T11:27:27.471Z,5.33
2022-10-29T11:30:03.955Z,5.43
2022-10-29T11:32:45.858Z,6.17
2022-10-29T11:35:17.019Z,5.83
2022-10-29T11:37:53.938Z,5.77
2022-10-29T11:40:24.908Z,5.50
2022-10-29T11:42:52.903Z,5.93
2022-10-29T11:45:28.564Z,4.90
2022-10-29T11:48:10.513Z,5.20
2022-10-29T11:50:45.726Z,5.33
2022-10-29T11:53:36.129Z,5.17
2022-10-29T11:56:15.007Z,5.13
2022-10-29T11:58:50.488Z,5.97
2022-10-29T12:01:26.872Z,5.93
2022-10-29T12:06:54.827Z,5.97
2022-10-29T12:09:46.315Z,5.07
2022-10-29T12:12:21.131Z,5.17
2022-10-29T12:14:55.001Z,5.90
2022-10-29T12:17:29.623Z,5.60
2022-10-29T12:22:45.344Z,6.07
2022-10-29T12:25:25.308Z,5.43
2022-10-29T12:28:06.709Z,6.00
2022-10-29T12:30:41.979Z,6.57
2022-10-29T12:33:19.827Z,6.37
2022-10-29T12:35:55.244Z,6.10
2022-10-29T12:38:39.207Z,7.03
2022-10-29T12:41:14.696Z,6.30
2022-10-29T12:43:44.016Z,6.30
2022-10-29T12:46:23.590Z,6.57
2022-10-29T12:48:59.347Z,6.63
2022-10-29T12:51:37.847Z,7.17
2022-10-29T12:54:25.627Z,6.50
2022-10-29T12:56:53.780Z,7.27
2022-10-29T12:59:34.109Z,7.30
2022-10-29T13:02:26.774Z,7.53
2022-10-29T13:05:14.532Z,7.43
2022-10-29T13:08:24.048Z,7.00
2022-10-29T13:10:55.279Z,7.10
2022-10-29T13:13:50.219Z,6.53
2022-10-29T13:16:21.328Z,6.60
2022-10-29T13:19:02.977Z,6.50
2022-10-29T13:21:59.533Z,7.50
2022-10-29T13:24:28.890Z,7.17
2022-10-29T13:27:03.862Z,6.47
2022-10-29T13:29:49.860Z,6.60
2022-10-29T13:32:36.361Z,6.53
2022-10-29T13:35:07.248Z,6.60
2022-10-29T13:38:12.766Z,7.40
2022-10-29T13:41:04.225Z,7.53
2022-10-29T13:43:34.993Z,6.60
2022-10-29T13:46:28.868Z,6.20
2022-10-29T13:48:58.945Z,6.20
2022-10-29T13:51:36.062Z,6.53
2022-10-29T13:54:09.894Z,6.33
2022-10-29T13:56:45.245Z,7.07
2022-10-29T13:59:22.219Z,6.27
2022-10-29T14:02:00.312Z,6.40
2022-10-29T14:04:32.770Z,7.77
2022-10-29T14:07:01.843Z,7.20
2022-10-29T14:09:38.941Z,6.87
2022-10-29T14:12:10.139Z,9.00
2022-10-29T14:14:49.890Z,9.67
2022-10-29T14:17:19.166Z,11.50
2022-10-29T14:19:47.942Z,10.13
2022-10-29T14:22:33.405Z,10.77
2022-10-29T14:25:02.886Z,9.53
2022-10-29T14:27:31.067Z,10.20
2022-10-29T14:30:20.690Z,8.73
2022-10-29T14:32:48.664Z,10.90
2022-10-29T14:35:17.559Z,10.93
2022-10-29T14:37:48.497Z,9.10
2022-10-29T14:40:20.536Z,9.57
2022-10-29T14:42:53.911Z,9.83
2022-10-29T14:45:28.286Z,10.83
2022-10-29T14:47:58.356Z,11.40
2022-10-29T14:50:29.160Z,11.03
2022-10-29T14:52:59.496Z,10.50
2022-10-29T14:55:30.249Z,10.57
2022-10-29T14:58:05.211Z,11.17
2022-10-29T15:00:37.255Z,12.13
2022-10-29T15:03:06.691Z,12.50
2022-10-29T15:05:36.741Z,12.70
2022-10-29T15:08:06.690Z,11.93
2022-10-29T15:10:46.511Z,12.47
2022-10-29T15:13:24.084Z,12.47
2022-10-29T15:15:56.215Z,13.87
2022-10-29T15:18:25.435Z,14.30
2022-10-29T15:20:55.724Z,12.90
2022-10-29T15:23:27.821Z,11.70
2022-10-29T15:26:02.170Z,12.67
2022-10-29T15:28:32.210Z,15.80
2022-10-29T15:31:05.045Z,15.40
2022-10-29T15:33:33.791Z,14.37
2022-10-29T15:36:03.925Z,14.27
2022-10-29T15:39:09.266Z,15.23
2022-10-29T15:41:40.272Z,16.03
2022-10-29T15:44:31.039Z,16.20
2022-10-29T15:47:02.388Z,18.73
2022-10-29T15:49:32.847Z,16.63
2022-10-29T15:52:01.662Z,18.60
2022-10-29T15:54:30.295Z,18.17
2022-10-29T15:56:58.259Z,17.77
2022-10-29T15:59:27.444Z,19.57
2022-10-29T16:01:55.467Z,19.10
2022-10-29T16:04:24.963Z,21.83
2022-10-29T16:06:52.919Z,21.70
2022-10-29T16:09:22.021Z,19.13
2022-10-29T16:11:50.743Z,20.07
2022-10-29T16:14:18.974Z,20.57
2022-10-29T16:16:46.989Z,20.97
2022-10-29T16:19:14.914Z,28.33
2022-10-29T16:21:44.286Z,35.57
2022-10-29T16:24:15.603Z,28.63
2022-10-29T16:26:43.588Z,24.83
2022-10-29T16:29:11.614Z,22.63
2022-10-29T16:31:39.644Z,21.87
2022-10-29T16:34:13.630Z,22.67
2022-10-29T16:36:41.675Z,21.03
2022-10-29T16:39:11.010Z,22.00
2022-10-29T16:41:38.980Z,22.63
2022-10-29T16:44:06.995Z,23.63
2022-10-29T16:46:34.950Z,22.93
2022-10-29T16:49:02.957Z,24.97
2022-10-29T16:51:30.924Z,23.40
2022-10-29T16:53:58.843Z,21.97
2022-10-29T16:56:28.142Z,23.07
2022-10-29T16:59:01.782Z,21.30
2022-10-29T17:01:30.245Z,24.43
2022-10-29T17:03:58.291Z,28.13
2022-10-29T17:06:26.306Z,27.73
2022-10-29T17:08:54.288Z,27.93
2022-10-29T17:11:22.236Z,25.93
2022-10-29T17:13:52.008Z,24.47
2022-10-29T17:16:20.044Z,27.43
2022-10-29T17:18:51.930Z,25.50
2022-10-29T17:21:19.892Z,24.67
2022-10-29T17:23:47.931Z,24.53
2022-10-29T17:26:15.939Z,25.33
2022-10-29T17:28:44.429Z,25.60
2022-10-29T17:31:13.764Z,25.50
2022-10-29T17:33:41.776Z,27.90
2022-10-29T17:36:14.018Z,23.77
2022-10-29T17:38:42.248Z,25.20
2022-10-29T17:41:10.232Z,25.07
2022-10-29T17:43:38.524Z,24.57
2022-10-29T17:46:07.239Z,25.37
2022-10-29T17:48:36.646Z,25.13
2022-10-29T17:51:04.936Z,27.43
2022-10-29T17:53:33.058Z,25.07
2022-10-29T17:56:01.971Z,24.70
2022-10-29T17:58:31.036Z,24.63
2022-10-29T18:01:05.335Z,28.10
2022-10-29T18:03:33.342Z,27.60
2022-10-29T18:06:04.057Z,27.27
2022-10-29T18:08:32.427Z,27.17
2022-10-29T18:11:04.140Z,26.67
2022-10-29T18:13:33.875Z,26.37
2022-10-29T18:16:02.702Z,25.00
2022-10-29T18:18:38.270Z,25.53
2022-10-29T18:24:13.927Z,28.53
2022-10-29T18:26:41.944Z,29.97
2022-10-29T18:29:13.220Z,27.67
2022-10-29T18:31:44.829Z,31.37
2022-10-29T18:34:15.064Z,30.03
2022-10-29T18:36:43.713Z,27.37
2022-10-29T18:39:13.320Z,28.47
2022-10-29T18:41:41.494Z,28.37
2022-10-29T18:44:09.691Z,28.27
2022-10-29T18:46:37.706Z,29.30
2022-10-29T18:49:05.742Z,27.37
2022-10-29T18:51:33.942Z,29.63
2022-10-29T18:54:01.899Z,28.83
2022-10-29T18:56:33.124Z,27.33
2022-10-29T18:59:01.439Z,27.13
2022-10-29T19:01:32.009Z,26.23
2022-10-29T19:04:02.157Z,29.10
2022-10-29T19:06:32.329Z,27.87
2022-10-29T19:09:01.065Z,26.70
2022-10-29T19:11:29.387Z,26.70
2022-10-29T19:14:00.594Z,26.47
2022-10-29T19:16:29.829Z,27.37
2022-10-29T19:18:59.358Z,27.43
2022-10-29T19:24:18.026Z,24.37
2022-10-29T19:26:46.181Z,25.00
2022-10-29T19:29:16.020Z,24.83
2022-10-29T19:31:46.095Z,25.50
2022-10-29T19:34:14.142Z,27.43
2022-10-29T19:36:42.138Z,25.60
2022-10-29T19:39:10.125Z,26.17
2022-10-29T19:41:38.146Z,23.40
2022-10-29T19:44:06.605Z,27.07
2022-10-29T19:46:35.963Z,26.03
2022-10-29T19:49:03.976Z,26.43
2022-10-29T19:51:31.987Z,26.87
2022-10-29T19:54:04.100Z,24.53
2022-10-29T19:56:32.072Z,23.40
2022-10-29T19:59:00.060Z,25.20
2022-10-29T20:01:28.172Z,23.77
2022-10-29T20:03:58.633Z,26.23
2022-10-29T20:06:26.714Z,26.23
2022-10-29T20:08:54.631Z,24.90
2022-10-29T20:11:22.921Z,26.50
2022-10-29T20:13:51.604Z,30.67
2022-10-29T20:16:21.487Z,29.67
2022-10-29T20:18:50.059Z,28.90
2022-10-29T20:21:19.553Z,32.97
2022-10-29T20:23:47.706Z,30.30
2022-10-29T20:26:15.674Z,31.60
2022-10-29T20:28:43.641Z,33.27
2022-10-29T20:31:24.464Z,30.50
2022-10-29T20:33:53.265Z,29.53
2022-10-29T20:36:24.470Z,30.50
2022-10-29T20:38:53.624Z,32.17
2022-10-29T20:41:22.615Z,32.03
2022-10-29T20:43:53.754Z,31.50
2022-10-29T20:46:22.096Z,31.50
2022-10-29T20:48:50.118Z,31.40
2022-10-29T20:51:18.294Z,32.07
2022-10-29T20:53:47.606Z,32.17
2022-10-29T20:56:16.612Z,31.40
2022-10-29T20:58:44.933Z,33.50
2022-10-29T21:01:15.552Z,30.17
2022-10-29T21:03:44.600Z,31.20
2022-10-29T21:06:16.919Z,32.77
2022-10-29T21:08:47.203Z,35.00
2022-10-29T21:11:16.893Z,36.33
2022-10-29T21:13:45.241Z,34.87
2022-10-29T21:16:17.667Z,33.80
2022-10-29T21:18:47.067Z,36.00
2022-10-29T21:21:15.359Z,35.20
2022-10-29T21:23:43.522Z,36.50
2022-10-29T21:26:15.532Z,34.70
2022-10-29T21:28:43.771Z,36.23
2022-10-29T21:31:12.350Z,35.43
2022-10-29T21:33:40.466Z,33.13
2022-10-29T21:36:09.133Z,35.80
2022-10-29T21:38:37.153Z,35.90
2022-10-29T21:41:05.116Z,33.50
2022-10-29T21:43:34.480Z,34.37
2022-10-29T21:46:02.501Z,31.67
2022-10-29T21:48:30.753Z,34.10
2022-10-29T21:51:03.109Z,38.43
2022-10-29T21:53:31.558Z,37.43
2022-10-29T21:56:00.434Z,37.67
2022-10-29T21:58:29.329Z,37.23
2022-10-29T22:01:06.061Z,36.03
2022-10-29T22:03:34.899Z,33.63
2022-10-29T22:06:04.291Z,33.27
2022-10-29T22:08:32.234Z,33.13
2022-10-29T22:11:00.878Z,34.10
2022-10-29T22:13:29.555Z,35.07
2022-10-29T22:15:58.130Z,35.30
2022-10-29T22:18:28.938Z,36.83
2022-10-29T22:21:12.128Z,36.93
2022-10-29T22:23:43.776Z,34.47
2022-10-29T22:26:12.120Z,34.90
2022-10-29T22:28:40.049Z,33.20
2022-10-29T22:31:08.761Z,35.97
2022-10-29T22:33:38.050Z,34.53
2022-10-29T22:36:08.920Z,33.43
2022-10-29T22:38:37.561Z,33.30
2022-10-29T22:41:07.040Z,32.67
2022-10-29T22:43:35.412Z,31.70
2022-10-29T22:46:04.204Z,30.57
2022-10-29T22:48:32.190Z,36.10
2022-10-29T22:51:03.318Z,33.57
2022-10-29T22:53:31.357Z,35.63
2022-10-29T22:56:01.092Z,36.33
2022-10-29T22:58:29.297Z,35.13
2022-10-29T23:01:05.072Z,34.83
2022-10-29T23:03:33.475Z,34.47
2022-10-29T23:06:04.908Z,35.43
2022-10-29T23:08:33.462Z,37.73
2022-10-29T23:11:05.767Z,36.07
2022-10-29T23:13:33.867Z,39.50
2022-10-29T23:16:01.992Z,35.07
2022-10-29T23:18:29.921Z,37.50
2022-10-29T23:21:03.504Z,35.60
2022-10-29T23:23:33.176Z,38.93
2022-10-29T23:26:02.482Z,35.23
2022-10-29T23:28:32.359Z,35.00
2022-10-29T23:31:01.435Z,35.83
2022-10-29T23:33:29.984Z,34.10
2022-10-29T23:36:03.451Z,36.80
2022-10-29T23:38:31.585Z,33.43
2022-10-29T23:40:59.536Z,32.70
2022-10-29T23:43:28.040Z,38.63
2022-10-29T23:45:56.500Z,40.00
2022-10-29T23:48:25.065Z,37.67
2022-10-29T23:50:53.170Z,34.53
2022-10-29T23:53:22.504Z,33.03
2022-10-29T23:55:50.437Z,33.67
2022-10-29T23:58:18.542Z,30.83
